createdAt,value
2019-01-24T00:00:23.042Z,998.35
2019-01-24T00:01:23.032Z,998.37
2019-01-24T00:02:23.020Z,998.40
2019-01-24T00:03:23.030Z,998.44
2019-01-24T00:04:22.998Z,998.48
2019-01-24T00:05:22.988Z,998.44
2019-01-24T00:06:22.982Z,998.45
2019-01-24T00:07:22.971Z,998.49
2019-01-24T00:08:22.996Z,998.45
2019-01-24T00:09:22.945Z,998.47
2019-01-24T00:10:22.933Z,998.50
2019-01-24T00:11:22.923Z,998.52
2019-01-24T00:12:22.912Z,998.52
2019-01-24T00:13:22.901Z,998.55
2019-01-24T00:14:22.923Z,998.57
2019-01-24T00:15:22.881Z,998.60
2019-01-24T00:16:22.877Z,998.60
2019-01-24T00:17:22.857Z,998.59
2019-01-24T00:18:22.877Z,998.61
2019-01-24T00:19:22.859Z,998.63
2019-01-24T00:20:22.830Z,998.62
2019-01-24T00:21:22.813Z,998.66
2019-01-24T00:22:22.802Z,998.69
2019-01-24T00:23:22.792Z,998.69
2019-01-24T00:24:22.802Z,998.70
2019-01-24T00:25:22.775Z,998.71
2019-01-24T00:26:22.759Z,998.72
2019-01-24T00:27:22.749Z,998.75
2019-01-24T00:28:22.743Z,998.74
2019-01-24T00:29:22.750Z,998.73
2019-01-24T00:30:22.722Z,998.75
2019-01-24T00:31:22.707Z,998.74
2019-01-24T00:32:22.701Z,998.77
2019-01-24T00:33:22.683Z,998.75
2019-01-24T00:34:23.381Z,998.70
2019-01-24T00:35:22.663Z,998.76
2019-01-24T00:36:22.650Z,998.74
2019-01-24T00:37:22.642Z,998.79
2019-01-24T00:38:22.630Z,998.80
2019-01-24T00:39:22.655Z,998.76
2019-01-24T00:40:22.606Z,998.84
2019-01-24T00:41:22.596Z,998.81
2019-01-24T00:42:22.586Z,998.80
2019-01-24T00:43:22.574Z,998.87
2019-01-24T00:44:22.565Z,998.90
2019-01-24T00:45:22.575Z,998.89
2019-01-24T00:46:22.542Z,998.85
2019-01-24T00:47:22.534Z,998.90
2019-01-24T00:48:22.519Z,998.86
2019-01-24T00:49:22.511Z,998.90
2019-01-24T00:50:22.525Z,998.93
2019-01-24T00:51:32.149Z,998.93
2019-01-24T00:52:22.478Z,998.95
2019-01-24T00:53:22.471Z,998.92
2019-01-24T00:54:22.454Z,998.93
2019-01-24T00:55:22.469Z,998.99
2019-01-24T00:56:22.433Z,999.00
2019-01-24T00:57:22.422Z,998.97
2019-01-24T00:58:22.411Z,999.01
2019-01-24T00:59:22.411Z,999.01
2019-01-24T01:00:22.412Z,999.01
2019-01-24T01:01:22.377Z,999.04
2019-01-24T01:02:22.368Z,999.04
2019-01-24T01:03:22.356Z,999.04
2019-01-24T01:04:22.345Z,999.02
2019-01-24T01:05:22.357Z,999.02
2019-01-24T01:06:22.323Z,999.04
2019-01-24T01:07:22.313Z,999.06
2019-01-24T01:08:22.301Z,999.06
2019-01-24T01:09:22.292Z,999.03
2019-01-24T01:10:22.302Z,999.11
2019-01-24T01:11:22.271Z,999.09
2019-01-24T01:12:22.262Z,999.08
2019-01-24T01:13:22.246Z,999.10
2019-01-24T01:14:22.240Z,999.13
2019-01-24T01:15:22.247Z,999.14
2019-01-24T01:16:22.215Z,999.15
2019-01-24T01:17:22.203Z,999.14
2019-01-24T01:18:22.211Z,999.17
2019-01-24T01:19:22.183Z,999.18
2019-01-24T01:20:22.191Z,999.23
2019-01-24T01:21:22.167Z,999.26
2019-01-24T01:22:22.153Z,999.26
2019-01-24T01:23:22.145Z,999.27
2019-01-24T01:24:22.130Z,999.30
2019-01-24T01:25:22.142Z,999.32
2019-01-24T01:26:22.108Z,999.31
2019-01-24T01:27:22.095Z,999.25
2019-01-24T01:28:22.085Z,999.32
2019-01-24T01:29:22.073Z,999.34
2019-01-24T01:30:22.086Z,999.36
2019-01-24T01:31:22.050Z,999.32
2019-01-24T01:32:22.040Z,999.36
2019-01-24T01:33:22.029Z,999.30
2019-01-24T01:34:22.024Z,999.33
2019-01-24T01:35:22.031Z,999.37
2019-01-24T01:36:22.001Z,999.39
2019-01-24T01:37:21.987Z,999.35
2019-01-24T01:38:21.976Z,999.38
2019-01-24T01:39:21.966Z,999.40
2019-01-24T01:40:21.978Z,999.40
2019-01-24T01:41:21.942Z,999.45
2019-01-24T01:42:21.942Z,999.42
2019-01-24T01:43:21.921Z,999.49
2019-01-24T01:44:21.920Z,999.54
2019-01-24T01:45:21.933Z,999.50
2019-01-24T01:46:21.893Z,999.47
2019-01-24T01:47:21.880Z,999.46
2019-01-24T01:48:21.865Z,999.50
2019-01-24T01:49:21.859Z,999.53
2019-01-24T01:50:21.865Z,999.50
2019-01-24T01:51:21.835Z,999.54
2019-01-24T01:52:21.822Z,999.50
2019-01-24T01:53:21.815Z,999.55
2019-01-24T01:54:21.801Z,999.53
2019-01-24T01:55:21.817Z,999.55
2019-01-24T01:56:21.781Z,999.58
2019-01-24T01:57:21.770Z,999.56
2019-01-24T01:58:21.762Z,999.56
2019-01-24T01:59:21.759Z,999.51
2019-01-24T02:00:21.767Z,999.57
2019-01-24T02:01:21.727Z,999.58
2019-01-24T02:02:21.716Z,999.57
2019-01-24T02:03:21.713Z,999.58
2019-01-24T02:04:21.696Z,999.60
2019-01-24T02:05:21.706Z,999.59
2019-01-24T02:06:21.672Z,999.63
2019-01-24T02:07:21.661Z,999.60
2019-01-24T02:08:21.653Z,999.61
2019-01-24T02:09:21.643Z,999.65
2019-01-24T02:10:21.653Z,999.66
2019-01-24T02:11:21.618Z,999.67
2019-01-24T02:12:21.606Z,999.68
2019-01-24T02:13:21.595Z,999.66
2019-01-24T02:14:21.588Z,999.66
2019-01-24T02:15:21.600Z,999.70
2019-01-24T02:16:21.562Z,999.69
2019-01-24T02:17:21.567Z,999.68
2019-01-24T02:18:21.543Z,999.70
2019-01-24T02:19:21.531Z,999.64
2019-01-24T02:20:21.545Z,999.67
2019-01-24T02:21:21.523Z,999.71
2019-01-24T02:22:21.499Z,999.69
2019-01-24T02:23:21.489Z,999.67
2019-01-24T02:24:21.476Z,999.68
2019-01-24T02:25:21.484Z,999.78
2019-01-24T02:26:21.454Z,999.74
2019-01-24T02:27:21.443Z,999.76
2019-01-24T02:28:21.441Z,999.76
2019-01-24T02:29:21.422Z,999.80
2019-01-24T02:30:21.432Z,999.83
2019-01-24T02:31:21.399Z,999.79
2019-01-24T02:32:21.390Z,999.80
2019-01-24T02:33:21.381Z,999.77
2019-01-24T02:34:21.368Z,999.79
2019-01-24T02:35:21.389Z,999.76
2019-01-24T02:36:21.348Z,999.82
2019-01-24T02:37:21.335Z,999.84
2019-01-24T02:38:21.327Z,999.72
2019-01-24T02:39:21.315Z,999.80
2019-01-24T02:40:21.310Z,999.82
2019-01-24T02:41:21.313Z,999.83
2019-01-24T02:42:21.281Z,999.77
2019-01-24T02:43:21.269Z,999.77
2019-01-24T02:44:21.260Z,999.73
2019-01-24T02:45:21.249Z,999.77
2019-01-24T02:46:21.258Z,999.81
2019-01-24T02:47:21.228Z,999.80
2019-01-24T02:48:21.215Z,999.84
2019-01-24T02:49:21.208Z,999.74
2019-01-24T02:50:21.193Z,999.78
2019-01-24T02:51:21.206Z,999.81
2019-01-24T02:52:21.171Z,999.87
2019-01-24T02:53:21.159Z,999.82
2019-01-24T02:54:21.170Z,999.85
2019-01-24T02:55:21.141Z,999.81
2019-01-24T02:56:21.151Z,999.83
2019-01-24T02:57:21.119Z,999.86
2019-01-24T02:58:21.109Z,999.85
2019-01-24T02:59:21.095Z,999.86
2019-01-24T03:00:21.085Z,999.87
2019-01-24T03:01:21.095Z,999.88
2019-01-24T03:02:21.074Z,999.88
2019-01-24T03:03:21.057Z,999.89
2019-01-24T03:04:21.040Z,999.88
2019-01-24T03:05:21.030Z,999.94
2019-01-24T03:06:21.039Z,999.89
2019-01-24T03:07:21.008Z,999.89
2019-01-24T03:08:20.997Z,999.93
2019-01-24T03:09:20.990Z,999.88
2019-01-24T03:10:20.975Z,999.91
2019-01-24T03:11:20.986Z,999.90
2019-01-24T03:12:20.954Z,999.95
2019-01-24T03:13:20.945Z,999.91
2019-01-24T03:14:20.931Z,999.96
2019-01-24T03:15:20.923Z,999.94
2019-01-24T03:16:20.930Z,999.93
2019-01-24T03:17:20.936Z,999.98
2019-01-24T03:18:20.888Z,999.92
2019-01-24T03:19:20.879Z,999.96
2019-01-24T03:20:20.886Z,999.96
2019-01-24T03:21:20.878Z,999.97
2019-01-24T03:22:20.844Z,999.95
2019-01-24T03:23:20.835Z,1000.00
2019-01-24T03:24:20.824Z,999.98
2019-01-24T03:25:20.818Z,999.95
2019-01-24T03:26:20.825Z,1000.02
2019-01-24T03:27:20.792Z,999.97
2019-01-24T03:28:20.779Z,999.94
2019-01-24T03:29:20.769Z,999.96
2019-01-24T03:30:20.759Z,999.97
2019-01-24T03:31:20.769Z,999.96
2019-01-24T03:32:20.739Z,1000.00
2019-01-24T03:33:20.729Z,1000.00
2019-01-24T03:34:20.718Z,1000.02
2019-01-24T03:35:20.707Z,1000.01
2019-01-24T03:36:20.714Z,999.97
2019-01-24T03:37:20.684Z,1000.01
2019-01-24T03:38:20.671Z,999.99
2019-01-24T03:39:20.661Z,1000.02
2019-01-24T03:40:20.651Z,1000.03
2019-01-24T03:41:20.659Z,1000.05
2019-01-24T03:42:20.629Z,1000.06
2019-01-24T03:43:20.632Z,1000.05
2019-01-24T03:44:20.606Z,1000.10
2019-01-24T03:45:20.600Z,1000.07
2019-01-24T03:46:20.607Z,1000.06
2019-01-24T03:47:20.573Z,1000.04
2019-01-24T03:48:20.563Z,1000.04
2019-01-24T03:49:20.551Z,1000.03
2019-01-24T03:50:20.541Z,1000.05
2019-01-24T03:51:20.555Z,1000.01
2019-01-24T03:52:20.522Z,1000.03
2019-01-24T03:53:20.507Z,1000.12
2019-01-24T03:54:20.498Z,1000.14
2019-01-24T03:55:20.486Z,1000.12
2019-01-24T03:56:20.497Z,1000.09
2019-01-24T03:57:20.467Z,1000.14
2019-01-24T03:58:20.454Z,1000.14
2019-01-24T03:59:20.456Z,1000.13
2019-01-24T04:00:20.437Z,1000.15
2019-01-24T04:01:20.442Z,1000.11
2019-01-24T04:02:20.414Z,1000.15
2019-01-24T04:03:20.404Z,1000.14
2019-01-24T04:04:20.391Z,1000.16
2019-01-24T04:05:20.379Z,1000.18
2019-01-24T04:06:20.398Z,1000.19
2019-01-24T04:07:20.357Z,1000.18
2019-01-24T04:08:20.346Z,1000.19
2019-01-24T04:09:20.335Z,1000.16
2019-01-24T04:10:20.323Z,1000.19
2019-01-24T04:11:20.388Z,1000.20
2019-01-24T04:12:20.302Z,1000.17
2019-01-24T04:13:20.292Z,1000.19
2019-01-24T04:14:20.280Z,1000.22
2019-01-24T04:15:20.299Z,1000.17
2019-01-24T04:16:20.280Z,1000.22
2019-01-24T04:17:20.251Z,1000.20
2019-01-24T04:18:20.237Z,1000.20
2019-01-24T04:19:20.230Z,1000.18
2019-01-24T04:20:20.218Z,1000.23
2019-01-24T04:21:20.226Z,1000.26
2019-01-24T04:22:20.197Z,1000.25
2019-01-24T04:23:20.184Z,1000.26
2019-01-24T04:24:20.171Z,1000.28
2019-01-24T04:25:20.162Z,1000.26
2019-01-24T04:26:20.170Z,1000.29
2019-01-24T04:27:20.138Z,1000.30
2019-01-24T04:28:20.128Z,1000.30
2019-01-24T04:29:20.117Z,1000.34
2019-01-24T04:30:20.105Z,1000.35
2019-01-24T04:31:20.119Z,1000.35
2019-01-24T04:32:20.087Z,1000.40
2019-01-24T04:33:20.073Z,1000.32
2019-01-24T04:34:20.065Z,1000.33
2019-01-24T04:35:20.387Z,1000.36
2019-01-24T04:36:20.062Z,1000.39
2019-01-24T04:37:20.034Z,1000.42
2019-01-24T04:38:20.022Z,1000.43
2019-01-24T04:39:20.008Z,1000.44
2019-01-24T04:40:20.005Z,1000.44
2019-01-24T04:41:20.011Z,1000.44
2019-01-24T04:42:19.975Z,1000.43
2019-01-24T04:43:19.966Z,1000.43
2019-01-24T04:44:19.957Z,1000.45
2019-01-24T04:45:19.944Z,1000.42
2019-01-24T04:46:19.933Z,1000.40
2019-01-24T04:47:19.943Z,1000.45
2019-01-24T04:48:19.911Z,1000.44
2019-01-24T04:49:19.905Z,1000.50
2019-01-24T04:50:19.900Z,1000.47
2019-01-24T04:51:19.883Z,1000.51
2019-01-24T04:52:19.893Z,1000.53
2019-01-24T04:53:19.856Z,1000.54
2019-01-24T04:54:19.848Z,1000.53
2019-01-24T04:55:19.835Z,1000.55
2019-01-24T04:56:19.823Z,1000.54
2019-01-24T04:57:19.838Z,1000.54
2019-01-24T04:58:19.802Z,1000.54
2019-01-24T04:59:19.794Z,1000.55
2019-01-24T05:00:19.779Z,1000.55
2019-01-24T05:01:19.769Z,1000.55
2019-01-24T05:02:19.821Z,1000.60
2019-01-24T05:03:19.750Z,1000.63
2019-01-24T05:04:19.737Z,1000.64
2019-01-24T05:05:27.167Z,1000.66
2019-01-24T05:06:19.716Z,1000.67
2019-01-24T05:07:19.728Z,1000.71
2019-01-24T05:08:19.693Z,1000.72
2019-01-24T05:09:19.682Z,1000.76
2019-01-24T05:10:19.673Z,1000.74
2019-01-24T05:11:19.660Z,1000.79
2019-01-24T05:12:19.674Z,1000.80
2019-01-24T05:13:19.647Z,1000.76
2019-01-24T05:14:19.627Z,1000.80
2019-01-24T05:15:19.624Z,1000.80
2019-01-24T05:16:19.605Z,1000.84
2019-01-24T05:17:19.626Z,1000.85
2019-01-24T05:18:19.584Z,1000.84
2019-01-24T05:19:19.574Z,1000.88
2019-01-24T05:20:19.561Z,1000.83
2019-01-24T05:21:19.552Z,1000.86
2019-01-24T05:22:19.563Z,1000.87
2019-01-24T05:23:19.530Z,1000.87
2019-01-24T05:24:19.522Z,1000.91
2019-01-24T05:25:27.836Z,1000.92
2019-01-24T05:26:19.497Z,1000.95
2019-01-24T05:27:19.511Z,1000.93
2019-01-24T05:28:19.477Z,1000.90
2019-01-24T05:29:19.470Z,1000.94
2019-01-24T05:30:19.477Z,1000.94
2019-01-24T05:31:19.444Z,1000.93
2019-01-24T05:32:19.460Z,1000.99
2019-01-24T05:33:19.421Z,1001.01
2019-01-24T05:34:19.408Z,1001.05
2019-01-24T05:35:19.405Z,1001.02
2019-01-24T05:36:28.661Z,1001.02
2019-01-24T05:37:19.400Z,1001.06
2019-01-24T05:38:19.368Z,1001.06
2019-01-24T05:39:27.849Z,1001.06
2019-01-24T05:40:19.349Z,1001.07
2019-01-24T05:41:19.332Z,1001.10
2019-01-24T05:42:19.343Z,1001.13
2019-01-24T05:43:19.313Z,1001.15
2019-01-24T05:44:19.301Z,1001.17
2019-01-24T05:45:19.310Z,1001.14
2019-01-24T05:46:19.278Z,1001.17
2019-01-24T05:47:27.878Z,1001.15
2019-01-24T05:48:19.255Z,1001.18
2019-01-24T05:49:19.245Z,1001.20
2019-01-24T05:50:27.799Z,1001.21
2019-01-24T05:51:19.224Z,1001.24
2019-01-24T05:52:19.950Z,1001.25
2019-01-24T05:53:19.202Z,1001.22
2019-01-24T05:54:19.193Z,1001.22
2019-01-24T05:55:19.178Z,1001.22
2019-01-24T05:56:19.170Z,1001.23
2019-01-24T05:57:19.203Z,1001.27
2019-01-24T05:58:19.146Z,1001.23
2019-01-24T05:59:19.137Z,1001.20
2019-01-24T06:00:19.127Z,1001.25
2019-01-24T06:01:28.423Z,1001.19
2019-01-24T06:02:19.137Z,1001.27
2019-01-24T06:03:19.094Z,1001.27
2019-01-24T06:04:19.082Z,1001.29
2019-01-24T06:05:19.075Z,1001.25
2019-01-24T06:06:19.059Z,1001.32
2019-01-24T06:07:19.268Z,1001.35
2019-01-24T06:08:19.404Z,1001.35
2019-01-24T06:09:19.031Z,1001.33
2019-01-24T06:10:19.018Z,1001.39
2019-01-24T06:11:19.004Z,1001.41
2019-01-24T06:12:19.018Z,1001.36
2019-01-24T06:13:18.985Z,1001.38
2019-01-24T06:14:18.971Z,1001.39
2019-01-24T06:15:18.963Z,1001.42
2019-01-24T06:16:18.949Z,1001.37
2019-01-24T06:17:18.965Z,1001.41
2019-01-24T06:18:18.930Z,1001.43
2019-01-24T06:19:18.916Z,1001.42
2019-01-24T06:20:18.911Z,1001.40
2019-01-24T06:21:18.894Z,1001.43
2019-01-24T06:22:18.910Z,1001.40
2019-01-24T06:23:18.878Z,1001.39
2019-01-24T06:24:18.863Z,1001.37
2019-01-24T06:25:18.852Z,1001.37
2019-01-24T06:26:18.841Z,1001.41
2019-01-24T06:27:18.851Z,1001.36
2019-01-24T06:28:18.822Z,1001.36
2019-01-24T06:29:18.806Z,1001.44
2019-01-24T06:30:18.799Z,1001.46
2019-01-24T06:31:18.787Z,1001.37
2019-01-24T06:32:18.809Z,1001.46
2019-01-24T06:33:18.763Z,1001.44
2019-01-24T06:34:18.761Z,1001.43
2019-01-24T06:35:18.745Z,1001.46
2019-01-24T06:36:18.733Z,1001.43
2019-01-24T06:37:18.741Z,1001.46
2019-01-24T06:38:18.709Z,1001.48
2019-01-24T06:39:18.697Z,1001.45
2019-01-24T06:40:18.690Z,1001.48
2019-01-24T06:41:18.676Z,1001.50
2019-01-24T06:42:18.696Z,1001.50
2019-01-24T06:43:18.661Z,1001.53
2019-01-24T06:44:18.644Z,1001.52
2019-01-24T06:45:18.633Z,1001.53
2019-01-24T06:46:18.622Z,1001.54
2019-01-24T06:47:18.634Z,1001.56
2019-01-24T06:48:18.607Z,1001.58
2019-01-24T06:49:18.591Z,1001.55
2019-01-24T06:50:18.579Z,1001.57
2019-01-24T06:51:18.566Z,1001.59
2019-01-24T06:52:18.576Z,1001.62
2019-01-24T06:53:18.548Z,1001.63
2019-01-24T06:54:18.534Z,1001.62
2019-01-24T06:55:18.523Z,1001.66
2019-01-24T06:56:18.512Z,1001.63
2019-01-24T06:57:18.523Z,1001.66
2019-01-24T06:58:18.490Z,1001.68
2019-01-24T06:59:18.479Z,1001.68
2019-01-24T07:00:18.468Z,1001.73
2019-01-24T07:01:18.458Z,1001.76
2019-01-24T07:02:18.470Z,1001.73
2019-01-24T07:03:18.470Z,1001.73
2019-01-24T07:04:18.424Z,1001.74
2019-01-24T07:05:18.414Z,1001.80
2019-01-24T07:06:18.405Z,1001.76
2019-01-24T07:07:18.414Z,1001.79
2019-01-24T07:08:18.383Z,1001.84
2019-01-24T07:09:18.372Z,1001.75
2019-01-24T07:10:18.364Z,1001.82
2019-01-24T07:11:18.349Z,1001.86
2019-01-24T07:12:18.359Z,1001.82
2019-01-24T07:13:18.327Z,1001.83
2019-01-24T07:14:18.338Z,1001.84
2019-01-24T07:15:18.307Z,1001.86
2019-01-24T07:16:18.302Z,1001.84
2019-01-24T07:17:18.282Z,1001.86
2019-01-24T07:18:18.297Z,1001.86
2019-01-24T07:19:18.263Z,1001.86
2019-01-24T07:20:18.260Z,1001.87
2019-01-24T07:21:18.245Z,1001.86
2019-01-24T07:22:18.231Z,1001.89
2019-01-24T07:23:18.245Z,1001.86
2019-01-24T07:24:18.210Z,1001.87
2019-01-24T07:25:18.196Z,1001.92
2019-01-24T07:26:18.188Z,1001.88
2019-01-24T07:27:18.174Z,1001.90
2019-01-24T07:28:18.238Z,1001.89
2019-01-24T07:29:18.152Z,1001.94
2019-01-24T07:30:18.150Z,1001.93
2019-01-24T07:31:18.133Z,1002.00
2019-01-24T07:32:18.229Z,1001.96
2019-01-24T07:33:18.131Z,1001.94
2019-01-24T07:34:18.098Z,1001.98
2019-01-24T07:35:18.125Z,1002.01
2019-01-24T07:36:18.078Z,1002.04
2019-01-24T07:37:18.067Z,1002.06
2019-01-24T07:38:18.079Z,1002.07
2019-01-24T07:39:18.044Z,1002.10
2019-01-24T07:40:18.033Z,1002.09
2019-01-24T07:41:18.028Z,1002.11
2019-01-24T07:42:18.014Z,1002.07
2019-01-24T07:43:18.102Z,1002.11
2019-01-24T07:44:17.992Z,1002.10
2019-01-24T07:45:17.980Z,1002.13
2019-01-24T07:46:17.967Z,1002.14
2019-01-24T07:47:17.956Z,1002.13
2019-01-24T07:48:17.980Z,1002.18
2019-01-24T07:49:17.936Z,1002.18
2019-01-24T07:50:17.926Z,1002.20
2019-01-24T07:51:17.922Z,1002.28
2019-01-24T07:52:17.901Z,1002.25
2019-01-24T07:53:17.913Z,1002.31
2019-01-24T07:54:17.883Z,1002.27
2019-01-24T07:55:17.874Z,1002.30
2019-01-24T07:56:17.864Z,1002.24
2019-01-24T07:57:17.851Z,1002.31
2019-01-24T07:58:17.877Z,1002.40
2019-01-24T07:59:17.827Z,1002.35
2019-01-24T08:00:17.834Z,1002.32
2019-01-24T08:01:17.804Z,1002.37
2019-01-24T08:02:17.794Z,1002.38
2019-01-24T08:03:17.811Z,1002.39
2019-01-24T08:04:17.770Z,1002.40
2019-01-24T08:05:17.767Z,1002.39
2019-01-24T08:06:17.752Z,1002.49
2019-01-24T08:07:17.741Z,1002.46
2019-01-24T08:08:17.748Z,1002.49
2019-01-24T08:09:17.719Z,1002.51
2019-01-24T08:10:17.706Z,1002.45
2019-01-24T08:11:17.716Z,1002.51
2019-01-24T08:12:17.683Z,1002.49
2019-01-24T08:13:17.695Z,1002.53
2019-01-24T08:14:17.662Z,1002.52
2019-01-24T08:15:17.656Z,1002.57
2019-01-24T08:16:17.640Z,1002.53
2019-01-24T08:17:17.628Z,1002.55
2019-01-24T08:18:17.639Z,1002.59
2019-01-24T08:19:17.610Z,1002.56
2019-01-24T08:20:17.597Z,1002.59
2019-01-24T08:21:17.585Z,1002.58
2019-01-24T08:22:17.574Z,1002.60
2019-01-24T08:23:17.585Z,1002.62
2019-01-24T08:24:17.552Z,1002.64
2019-01-24T08:25:17.549Z,1002.63
2019-01-24T08:26:17.533Z,1002.62
2019-01-24T08:27:17.519Z,1002.62
2019-01-24T08:28:17.529Z,1002.65
2019-01-24T08:29:17.505Z,1002.65
2019-01-24T08:30:17.488Z,1002.63
2019-01-24T08:31:17.477Z,1002.65
2019-01-24T08:32:17.467Z,1002.69
2019-01-24T08:33:17.475Z,1002.67
2019-01-24T08:34:17.442Z,1002.70
2019-01-24T08:35:17.432Z,1002.68
2019-01-24T08:36:17.425Z,1002.72
2019-01-24T08:37:17.410Z,1002.76
2019-01-24T08:38:17.422Z,1002.75
2019-01-24T08:39:17.388Z,1002.79
2019-01-24T08:40:17.376Z,1002.80
2019-01-24T08:41:17.367Z,1002.75
2019-01-24T08:42:17.358Z,1002.78
2019-01-24T08:43:17.365Z,1002.83
2019-01-24T08:44:17.342Z,1002.79
2019-01-24T08:45:17.328Z,1002.82
2019-01-24T08:46:17.311Z,1002.76
2019-01-24T08:47:17.307Z,1002.84
2019-01-24T08:48:17.315Z,1002.79
2019-01-24T08:49:17.283Z,1002.82
2019-01-24T08:50:17.267Z,1002.86
2019-01-24T08:51:17.262Z,1002.85
2019-01-24T08:52:17.246Z,1002.86
2019-01-24T08:53:17.258Z,1002.88
2019-01-24T08:54:17.224Z,1002.84
2019-01-24T08:55:17.216Z,1002.89
2019-01-24T08:56:17.203Z,1002.94
2019-01-24T08:57:17.191Z,1002.91
2019-01-24T08:58:17.212Z,1002.95
2019-01-24T08:59:17.169Z,1002.95
2019-01-24T09:00:17.163Z,1002.95
2019-01-24T09:01:17.150Z,1002.95
2019-01-24T09:02:17.137Z,1002.97
2019-01-24T09:03:17.146Z,1003.03
2019-01-24T09:04:17.114Z,1003.01
2019-01-24T09:05:17.103Z,1003.05
2019-01-24T09:06:22.519Z,1003.07
2019-01-24T09:07:17.084Z,1003.09
2019-01-24T09:08:17.107Z,1003.05
2019-01-24T09:09:17.066Z,1003.09
2019-01-24T09:10:17.051Z,1003.13
2019-01-24T09:11:17.063Z,1003.15
2019-01-24T09:12:17.027Z,1003.16
2019-01-24T09:13:17.019Z,1003.14
2019-01-24T09:14:17.025Z,1003.17
2019-01-24T09:15:16.995Z,1003.18
2019-01-24T09:16:16.988Z,1003.18
2019-01-24T09:17:16.975Z,1003.20
2019-01-24T09:18:16.961Z,1003.23
2019-01-24T09:19:16.973Z,1003.23
2019-01-24T09:20:16.943Z,1003.24
2019-01-24T09:21:16.947Z,1003.23
2019-01-24T09:22:16.921Z,1003.31
2019-01-24T09:23:16.907Z,1003.30
2019-01-24T09:24:16.921Z,1003.31
2019-01-24T09:25:16.885Z,1003.33
2019-01-24T09:26:16.874Z,1003.35
2019-01-24T09:27:16.865Z,1003.30
2019-01-24T09:28:16.852Z,1003.30
2019-01-24T09:29:16.863Z,1003.29
2019-01-24T09:30:16.834Z,1003.30
2019-01-24T09:31:16.819Z,1003.30
2019-01-24T09:32:16.809Z,1003.34
2019-01-24T09:33:16.797Z,1003.34
2019-01-24T09:34:16.811Z,1003.36
2019-01-24T09:35:16.775Z,1003.38
2019-01-24T09:36:16.764Z,1003.43
2019-01-24T09:37:16.753Z,1003.37
2019-01-24T09:38:16.743Z,1003.44
2019-01-24T09:39:16.755Z,1003.43
2019-01-24T09:40:16.720Z,1003.44
2019-01-24T09:41:16.716Z,1003.44
2019-01-24T09:42:16.699Z,1003.44
2019-01-24T09:43:16.688Z,1003.45
2019-01-24T09:44:16.698Z,1003.48
2019-01-24T09:45:16.670Z,1003.47
2019-01-24T09:46:16.658Z,1003.42
2019-01-24T09:47:16.649Z,1003.46
2019-01-24T09:48:16.634Z,1003.47
2019-01-24T09:49:16.644Z,1003.51
2019-01-24T09:50:16.629Z,1003.49
2019-01-24T09:51:16.601Z,1003.52
2019-01-24T09:52:16.592Z,1003.53
2019-01-24T09:53:16.614Z,1003.54
2019-01-24T09:54:16.592Z,1003.53
2019-01-24T09:55:16.593Z,1003.51
2019-01-24T09:56:16.547Z,1003.51
2019-01-24T09:57:16.537Z,1003.48
2019-01-24T09:58:16.525Z,1003.54
2019-01-24T09:59:16.536Z,1003.51
2019-01-24T10:00:16.505Z,1003.51
2019-01-24T10:01:16.492Z,1003.52
2019-01-24T10:02:16.492Z,1003.50
2019-01-24T10:03:16.471Z,1003.54
2019-01-24T10:04:16.497Z,1003.51
2019-01-24T10:05:16.469Z,1003.51
2019-01-24T10:06:16.440Z,1003.48
2019-01-24T10:07:16.428Z,1003.56
2019-01-24T10:08:16.415Z,1003.52
2019-01-24T10:09:16.426Z,1003.49
2019-01-24T10:10:16.398Z,1003.52
2019-01-24T10:11:16.387Z,1003.46
2019-01-24T10:12:16.372Z,1003.50
2019-01-24T10:13:16.361Z,1003.51
2019-01-24T10:14:16.373Z,1003.54
2019-01-24T10:15:16.339Z,1003.50
2019-01-24T10:16:16.328Z,1003.52
2019-01-24T10:17:16.319Z,1003.53
2019-01-24T10:18:21.591Z,1003.55
2019-01-24T10:19:16.325Z,1003.47
2019-01-24T10:20:16.287Z,1003.50
2019-01-24T10:21:16.274Z,1003.49
2019-01-24T10:22:16.268Z,1003.52
2019-01-24T10:23:16.253Z,1003.48
2019-01-24T10:24:16.266Z,1003.50
2019-01-24T10:25:16.232Z,1003.52
2019-01-24T10:26:16.221Z,1003.54
2019-01-24T10:27:16.212Z,1003.52
2019-01-24T10:28:16.198Z,1003.52
2019-01-24T10:29:16.208Z,1003.55
2019-01-24T10:30:16.177Z,1003.52
2019-01-24T10:31:16.166Z,1003.47
2019-01-24T10:32:16.154Z,1003.50
2019-01-24T10:33:16.154Z,1003.48
2019-01-24T10:34:16.161Z,1003.43
2019-01-24T10:35:16.122Z,1003.45
2019-01-24T10:36:16.112Z,1003.45
2019-01-24T10:37:16.100Z,1003.48
2019-01-24T10:38:16.090Z,1003.47
2019-01-24T10:39:16.107Z,1003.50
2019-01-24T10:40:16.067Z,1003.44
2019-01-24T10:41:16.059Z,1003.51
2019-01-24T10:42:16.048Z,1003.48
2019-01-24T10:43:16.034Z,1003.47
2019-01-24T10:44:16.044Z,1003.46
2019-01-24T10:45:16.013Z,1003.47
2019-01-24T10:46:16.004Z,1003.43
2019-01-24T10:47:15.991Z,1003.43
2019-01-24T10:48:15.979Z,1003.39
2019-01-24T10:49:15.992Z,1003.44
2019-01-24T10:50:15.958Z,1003.44
2019-01-24T10:51:15.951Z,1003.45
2019-01-24T10:52:15.939Z,1003.45
2019-01-24T10:53:15.926Z,1003.42
2019-01-24T10:54:15.941Z,1003.50
2019-01-24T10:55:15.903Z,1003.46
2019-01-24T10:56:15.895Z,1003.47
2019-01-24T10:57:15.882Z,1003.47
2019-01-24T10:58:15.870Z,1003.51
2019-01-24T10:59:15.904Z,1003.47
2019-01-24T11:00:15.848Z,1003.49
2019-01-24T11:01:15.839Z,1003.49
2019-01-24T11:02:15.826Z,1003.47
2019-01-24T11:03:15.815Z,1003.52
2019-01-24T11:04:15.804Z,1003.48
2019-01-24T11:05:15.826Z,1003.48
2019-01-24T11:06:15.781Z,1003.48
2019-01-24T11:07:15.770Z,1003.48
2019-01-24T11:08:15.772Z,1003.48
2019-01-24T11:09:15.749Z,1003.48
2019-01-24T11:10:15.762Z,1003.49
2019-01-24T11:11:15.728Z,1003.44
2019-01-24T11:12:15.717Z,1003.40
2019-01-24T11:13:15.708Z,1003.45
2019-01-24T11:14:15.695Z,1003.41
2019-01-24T11:15:15.707Z,1003.38
2019-01-24T11:16:15.678Z,1003.45
2019-01-24T11:17:15.661Z,1003.38
2019-01-24T11:18:15.651Z,1003.39
2019-01-24T11:19:15.640Z,1003.43
2019-01-24T11:20:15.650Z,1003.40
2019-01-24T11:21:15.621Z,1003.42
2019-01-24T11:22:15.608Z,1003.46
2019-01-24T11:23:15.599Z,1003.45
2019-01-24T11:24:15.585Z,1003.44
2019-01-24T11:25:15.597Z,1003.47
2019-01-24T11:26:15.571Z,1003.45
2019-01-24T11:27:15.553Z,1003.46
2019-01-24T11:28:15.542Z,1003.48
2019-01-24T11:29:15.532Z,1003.44
2019-01-24T11:30:15.542Z,1003.48
2019-01-24T11:31:15.516Z,1003.47
2019-01-24T11:32:15.499Z,1003.46
2019-01-24T11:33:15.490Z,1003.49
2019-01-24T11:34:16.005Z,1003.47
2019-01-24T11:35:15.487Z,1003.44
2019-01-24T11:36:15.454Z,1003.43
2019-01-24T11:37:15.443Z,1003.45
2019-01-24T11:38:15.435Z,1003.46
2019-01-24T11:39:15.421Z,1003.48
2019-01-24T11:40:15.433Z,1003.47
2019-01-24T11:41:15.404Z,1003.49
2019-01-24T11:42:15.390Z,1003.50
2019-01-24T11:43:15.378Z,1003.50
2019-01-24T11:44:15.366Z,1003.52
2019-01-24T11:45:15.380Z,1003.50
2019-01-24T11:46:15.349Z,1003.44
2019-01-24T11:47:15.334Z,1003.49
2019-01-24T11:48:15.324Z,1003.50
2019-01-24T11:49:15.315Z,1003.48
2019-01-24T11:50:15.324Z,1003.46
2019-01-24T11:51:15.293Z,1003.44
2019-01-24T11:52:15.280Z,1003.41
2019-01-24T11:53:15.270Z,1003.50
2019-01-24T11:54:15.261Z,1003.46
2019-01-24T11:55:15.268Z,1003.43
2019-01-24T11:56:15.236Z,1003.47
2019-01-24T11:57:15.226Z,1003.49
2019-01-24T11:58:15.215Z,1003.49
2019-01-24T11:59:15.206Z,1003.47
2019-01-24T12:00:15.222Z,1003.55
2019-01-24T12:01:15.181Z,1003.53
2019-01-24T12:02:15.171Z,1003.55
2019-01-24T12:03:15.161Z,1003.60
2019-01-24T12:04:15.149Z,1003.57
2019-01-24T12:05:15.160Z,1003.60
2019-01-24T12:06:15.128Z,1003.57
2019-01-24T12:07:15.119Z,1003.62
2019-01-24T12:08:15.106Z,1003.61
2019-01-24T12:09:15.097Z,1003.58
2019-01-24T12:10:15.105Z,1003.58
2019-01-24T12:11:15.076Z,1003.61
2019-01-24T12:12:15.062Z,1003.59